Aérodrome :
LOGIN :

S'inscrire | Disclaimer

   EN    FR    IT 

 










Légende :    VFR   VFR Marginal   IFR   IFR Intensif   IFR Très Intensif
Visi : 
Plafond : 
>= 8 km
>= 3000ft
5 à 8 km
1000 à 3000 ft
1500m à 5 km
500 à 1000 ft
800 à 1500m
200 à 500 ft
< 800m
< 200 ft
Symboles :   Orages  Brouillard  Fortes neiges  Fortes précipitations  Vent > 20 kt
SIGMETs :   Divers  Orages  Givrage  Turbulence  Onde Orograph.  Cendres Volcan.






- Altitude de l'aérodrome : 4368 ft
- Code IATA : SKV


HESC - St Catherine International

DERNIER METAR :
  • 041800Z 00000KT CAVOK 20/M01 Q1023 NOSIG

METARs EXPIRÉS :
  • 041700Z 16009KT CAVOK 22/M00 Q1022 NOSIG
  • 041600Z 16010KT CAVOK 23/M01 Q1021 NOSIG
  • 041500Z 15008KT CAVOK 23/M01 Q1021 NOSIG

TAF TAF HESC
Valide du 04 à 18h jusqu'au 06 à 00h UTC


041700Z 0418/0524 11012KT CAVOK
BECMG 0307/0309 33010KT



MET'MAP, la Météo Aéronautique d'un coup d'oeil ! - Copyright ORBIFLY Décembre 2007 - Disclaimer

ORBIFLY MET'MAP TEAM :

Programmation & Développement : Alexandra Zaïnal
Sur une idée originale de : Baudouin d'Aumeries
Assistance à la programmation : Marc-Olivier Méhu
Soutien technique & logistique : Manuel Goepfert

Contact : metmap@orbifly.com




SOURCES & CREDITS :

   NOAA